Terminal Aerodrome Forecast
Issued by NWS

Home | Current Version | Previous Version | Text Only | Print | Product List | Glossary On
Versions: 1 2 3 4 5 6 7 8 9 10 11 12 13 14 15 16 17 18 19 20 21 22 23 24 25 26
000
FTUS44 KLIX 060052 AAA
TAFHUM
TAF AMD
KHUM 060052Z 0601/0624 10006KT 5SM BR VCSH SCT005 OVC010
      TEMPO 0601/0603 VRB20KT 1 1/2SM TSRA BKN004 OVC015CB
     FM060500 24012G22KT P6SM BKN008
     FM061000 26011G20KT P6SM BKN020
     FM061100 28010G18KT P6SM BKN015
     FM061600 29009KT P6SM SCT040
     FM061900 30008KT P6SM SCT050=

USA.gov is the U.S. government's official web portal to all federal, state and local government web resources and services.